| time (UTC) | temp F | wind direction | speed knots | gust knots | rain 1hr in | rain 24hr in | rain mn in | humidity % | barometer mb |
| 20260504173006 | 81 | 17 | 2.6 | 8.7 | 0.00 | 0.00 | 0.00 | 53 | 1017.3 |
| 20260504171508 | 79 | 49 | 0.0 | 7.0 | 0.00 | 0.00 | 0.00 | 56 | 1017.4 |
| 20260504100116 | 59 | 26 | 0.0 | 1.7 | 0.00 | 0.00 | 0.00 | 91 | 1017.1 |
| 20260504081548 | 62 | 27 | 0.0 | 1.7 | 0.00 | 0.00 | 0.00 | 89 | 1017.0 |
| 20260504044536 | 64 | 136 | 0.0 | 0.0 | 0.00 | 0.00 | 0.00 | 88 | 1017.8 |
| 20260504043038 | 65 | 136 | 0.0 | 0.0 | 0.00 | 0.00 | 0.00 | 87 | 1018.3 |
| 20260504041522 | 66 | 143 | 0.0 | 1.7 | 0.00 | 0.00 | 0.00 | 86 | 1018.4 |
| 20260504040022 | 66 | 77 | 0.0 | 1.7 | 0.00 | 0.00 | 0.00 | 86 | 1018.7 |
| 20260504034520 | 66 | 77 | 0.0 | 1.7 | 0.00 | 0.00 | 0.00 | 85 | 1018.9 |
| 20260504033019 | 66 | 15 | 0.0 | 0.0 | 0.00 | 0.00 | 0.00 | 86 | 1018.7 |
| 20260504031519 | 65 | 15 | 0.0 | 0.0 | 0.00 | 0.00 | 0.00 | 85 | 1018.6 |
| 20260504030018 | 65 | 15 | 0.0 | 0.0 | 0.00 | 0.00 | 0.00 | 85 | 1018.4 |
| 20260504024518 | 66 | 15 | 0.0 | 0.0 | 0.00 | 0.00 | 0.00 | 84 | 1018.5 |
| 20260504023017 | 67 | 15 | 0.0 | 2.6 | 0.00 | 0.00 | 0.00 | 82 | 1018.2 |
| 20260504021518 | 67 | 19 | 0.0 | 0.0 | 0.00 | 0.00 | 0.00 | 83 | 1018.2 |
| 20260504020018 | 66 | 19 | 0.0 | 0.0 | 0.00 | 0.00 | 0.00 | 83 | 1017.9 |
| 20260504014515 | 66 | 19 | 0.0 | 0.9 | 0.00 | 0.00 | 0.00 | 83 | 1017.7 |
| 20260504013019 | 66 | 19 | 0.0 | 0.9 | 0.00 | 0.00 | 0.00 | 84 | 1017.6 |
| 20260504011515 | 67 | 19 | 0.0 | 0.0 | 0.00 | 0.00 | 0.00 | 81 | 1017.2 |
| 20260504010014 | 68 | 19 | 0.0 | 0.0 | 0.00 | 0.00 | 0.00 | 79 | 1017.0 |
| 20260504004518 | 69 | 19 | 0.0 | 1.7 | 0.00 | 0.00 | 0.00 | 76 | 1016.9 |
| 20260504003013 | 70 | 19 | 0.0 | 1.7 | 0.00 | 0.00 | 0.00 | 75 | 1016.7 |
| 20260504001513 | 70 | 270 | 0.0 | 1.7 | 0.00 | 0.00 | 0.00 | 74 | 1016.5 |
| 20260504000013 | 71 | 360 | 0.0 | 2.6 | 0.00 | 0.00 | 0.00 | 74 | 1016.3 |
| 20260503234517 | 72 | 324 | 0.9 | 2.6 | 0.00 | 0.00 | 0.00 | 71 | 1016.4 |
| 20260503233011 | 73 | 21 | 0.9 | 3.5 | 0.00 | 0.00 | 0.00 | 70 | 1016.3 |
| 20260503231511 | 74 | 40 | 0.0 | 2.6 | 0.00 | 0.00 | 0.00 | 71 | 1016.3 |
| 20260503230012 | 74 | 285 | 0.0 | 4.3 | 0.00 | 0.01 | 0.00 | 71 | 1016.3 |
| 20260503224510 | 75 | 31 | 0.9 | 3.5 | 0.00 | 0.01 | 0.00 | 68 | 1016.2 |
| 20260503223010 | 76 | 62 | 0.9 | 4.3 | 0.00 | 0.01 | 0.00 | 68 | 1016.2 |
| 20260503221509 | 77 | 122 | 0.0 | 2.6 | 0.00 | 0.01 | 0.00 | 66 | 1016.3 |
| 20260503220009 | 78 | 217 | 1.7 | 3.5 | 0.00 | 0.01 | 0.00 | 63 | 1016.3 |
| 20260503214529 | 79 | 64 | 0.0 | 4.3 | 0.00 | 0.01 | 0.00 | 60 | 1016.3 |
| 20260503213008 | 78 | 26 | 0.0 | 1.7 | 0.00 | 0.01 | 0.00 | 59 | 1016.2 |
| 20260503211508 | 78 | 67 | 1.7 | 3.5 | 0.00 | 0.01 | 0.00 | 59 | 1016.3 |
| 20260503210007 | 80 | 225 | 0.0 | 3.5 | 0.00 | 0.06 | 0.00 | 61 | 1016.3 |
| 20260503204507 | 80 | 96 | 0.9 | 3.5 | 0.00 | 0.06 | 0.00 | 57 | 1016.2 |
| 20260503203006 | 78 | 33 | 0.0 | 4.3 | 0.00 | 0.06 | 0.00 | 59 | 1016.5 |
| 20260503201506 | 80 | 138 | 0.9 | 5.2 | 0.00 | 0.06 | 0.00 | 58 | 1016.6 |
| 20260503200004 | 77 | 219 | 0.0 | 4.3 | 0.00 | 0.12 | 0.00 | 60 | 1016.9 |
| 20260503194502 | 77 | 146 | 1.7 | 5.2 | 0.00 | 0.12 | 0.00 | 62 | 1017.1 |
| 20260503193002 | 78 | 343 | 1.7 | 5.2 | 0.00 | 0.12 | 0.00 | 62 | 1017.2 |
| 20260503191607 | 79 | 306 | 0.0 | 4.3 | 0.00 | 0.12 | 0.00 | 59 | 1017.4 |
| 20260503191507 | 80 | 309 | 0.0 | 4.3 | 0.00 | 0.12 | 0.00 | 59 | 1017.3 |
| 20260503190100 | 78 | 68 | 1.7 | 7.0 | 0.00 | 0.12 | 0.00 | 65 | 1017.7 |
| 20260503184618 | 79 | 109 | 2.6 | 6.1 | 0.00 | 0.36 | 0.00 | 61 | 1018.1 |
| 20260503183100 | 78 | 69 | 1.7 | 6.1 | 0.00 | 0.36 | 0.00 | 62 | 1018.1 |
| 20260503181613 | 77 | 164 | 2.6 | 7.0 | 0.00 | 0.36 | 0.00 | 63 | 1018.5 |
| 20260503180115 | 78 | 126 | 1.7 | 4.3 | 0.00 | 0.36 | 0.00 | 61 | 1018.6 |
| 20260503174558 | 77 | 301 | 0.0 | 2.6 | 0.00 | 0.36 | 0.00 | 66 | 1018.5 |